sensor_id;sensor_type;location;lat;lon;timestamp;P1;durP1;ratioP1;P2;durP2;ratioP2
54849;SDS011;47660;51.334;12.396;2023-03-02T00:01:25;10.98;;;3.92;;
54849;SDS011;47660;51.334;12.396;2023-03-02T00:03:54;7.93;;;3.85;;
54849;SDS011;47660;51.334;12.396;2023-03-02T00:06:23;9.70;;;3.40;;
54849;SDS011;47660;51.334;12.396;2023-03-02T00:08:49;9.95;;;3.50;;
54849;SDS011;47660;51.334;12.396;2023-03-02T00:11:15;9.13;;;3.38;;
54849;SDS011;47660;51.334;12.396;2023-03-02T00:13:42;6.57;;;4.05;;
54849;SDS011;47660;51.334;12.396;2023-03-02T00:16:08;5.55;;;2.95;;
54849;SDS011;47660;51.334;12.396;2023-03-02T00:18:36;5.00;;;2.95;;
54849;SDS011;47660;51.334;12.396;2023-03-02T00:21:02;7.90;;;3.50;;
54849;SDS011;47660;51.334;12.396;2023-03-02T00:23:27;8.07;;;4.07;;
54849;SDS011;47660;51.334;12.396;2023-03-02T00:25:53;7.25;;;3.13;;
54849;SDS011;47660;51.334;12.396;2023-03-02T00:28:18;8.32;;;3.63;;
54849;SDS011;47660;51.334;12.396;2023-03-02T00:30:44;7.95;;;4.68;;
54849;SDS011;47660;51.334;12.396;2023-03-02T00:33:09;6.93;;;4.10;;
54849;SDS011;47660;51.334;12.396;2023-03-02T00:35:37;10.88;;;3.40;;
54849;SDS011;47660;51.334;12.396;2023-03-02T00:38:04;11.75;;;3.50;;
54849;SDS011;47660;51.334;12.396;2023-03-02T00:40:31;7.60;;;3.95;;
54849;SDS011;47660;51.334;12.396;2023-03-02T00:42:57;7.78;;;4.43;;
54849;SDS011;47660;51.334;12.396;2023-03-02T00:45:23;6.78;;;3.83;;
54849;SDS011;47660;51.334;12.396;2023-03-02T00:47:48;6.05;;;3.60;;
54849;SDS011;47660;51.334;12.396;2023-03-02T00:50:13;9.85;;;3.70;;
54849;SDS011;47660;51.334;12.396;2023-03-02T00:52:39;5.63;;;2.35;;
54849;SDS011;47660;51.334;12.396;2023-03-02T00:55:07;7.28;;;3.65;;
54849;SDS011;47660;51.334;12.396;2023-03-02T00:57:33;8.23;;;3.95;;
54849;SDS011;47660;51.334;12.396;2023-03-02T00:59:59;7.65;;;3.08;;
54849;SDS011;47660;51.334;12.396;2023-03-02T01:02:24;5.05;;;3.30;;
54849;SDS011;47660;51.334;12.396;2023-03-02T01:04:50;6.53;;;3.75;;
54849;SDS011;47660;51.334;12.396;2023-03-02T01:07:17;9.15;;;3.42;;
54849;SDS011;47660;51.334;12.396;2023-03-02T01:09:44;5.75;;;3.05;;
54849;SDS011;47660;51.334;12.396;2023-03-02T01:12:12;15.88;;;3.97;;
54849;SDS011;47660;51.334;12.396;2023-03-02T01:14:40;12.95;;;4.22;;
54849;SDS011;47660;51.334;12.396;2023-03-02T01:17:07;6.80;;;3.28;;
54849;SDS011;47660;51.334;12.396;2023-03-02T01:19:34;9.27;;;4.80;;
54849;SDS011;47660;51.334;12.396;2023-03-02T01:22:01;11.15;;;3.72;;
54849;SDS011;47660;51.334;12.396;2023-03-02T01:24:28;8.40;;;4.13;;
54849;SDS011;47660;51.334;12.396;2023-03-02T01:26:53;7.53;;;3.78;;
54849;SDS011;47660;51.334;12.396;2023-03-02T01:29:21;8.10;;;3.95;;
54849;SDS011;47660;51.334;12.396;2023-03-02T01:31:46;9.15;;;3.83;;
54849;SDS011;47660;51.334;12.396;2023-03-02T01:34:12;10.25;;;4.13;;
54849;SDS011;47660;51.334;12.396;2023-03-02T01:36:37;9.85;;;4.68;;
54849;SDS011;47660;51.334;12.396;2023-03-02T01:39:05;11.07;;;4.18;;
54849;SDS011;47660;51.334;12.396;2023-03-02T01:41:33;9.20;;;4.72;;
54849;SDS011;47660;51.334;12.396;2023-03-02T01:43:59;9.48;;;4.07;;
54849;SDS011;47660;51.334;12.396;2023-03-02T01:46:25;8.05;;;4.13;;
54849;SDS011;47660;51.334;12.396;2023-03-02T01:49:10;6.68;;;3.17;;
54849;SDS011;47660;51.334;12.396;2023-03-02T01:51:39;10.07;;;4.43;;
54849;SDS011;47660;51.334;12.396;2023-03-02T01:54:13;13.88;;;3.83;;
54849;SDS011;47660;51.334;12.396;2023-03-02T01:56:48;7.70;;;4.18;;
54849;SDS011;47660;51.334;12.396;2023-03-02T01:59:17;9.30;;;3.92;;
54849;SDS011;47660;51.334;12.396;2023-03-02T02:01:46;9.30;;;4.30;;
54849;SDS011;47660;51.334;12.396;2023-03-02T02:04:18;8.90;;;4.25;;
54849;SDS011;47660;51.334;12.396;2023-03-02T02:07:18;10.60;;;3.83;;
54849;SDS011;47660;51.334;12.396;2023-03-02T02:09:42;8.93;;;3.78;;
54849;SDS011;47660;51.334;12.396;2023-03-02T02:12:15;10.77;;;4.22;;
54849;SDS011;47660;51.334;12.396;2023-03-02T02:14:44;8.60;;;3.95;;
54849;SDS011;47660;51.334;12.396;2023-03-02T02:17:12;5.30;;;4.00;;
54849;SDS011;47660;51.334;12.396;2023-03-02T02:22:11;7.70;;;3.83;;
54849;SDS011;47660;51.334;12.396;2023-03-02T02:24:43;12.45;;;4.18;;
54849;SDS011;47660;51.334;12.396;2023-03-02T02:27:13;5.95;;;3.58;;
54849;SDS011;47660;51.334;12.396;2023-03-02T02:29:42;13.98;;;5.03;;
54849;SDS011;47660;51.334;12.396;2023-03-02T02:32:16;12.65;;;5.30;;
54849;SDS011;47660;51.334;12.396;2023-03-02T02:34:45;8.70;;;4.90;;
54849;SDS011;47660;51.334;12.396;2023-03-02T02:39:52;8.75;;;4.40;;
54849;SDS011;47660;51.334;12.396;2023-03-02T02:42:19;12.35;;;4.63;;
54849;SDS011;47660;51.334;12.396;2023-03-02T02:44:56;12.30;;;5.03;;
54849;SDS011;47660;51.334;12.396;2023-03-02T02:47:25;13.70;;;6.38;;
54849;SDS011;47660;51.334;12.396;2023-03-02T02:49:52;8.57;;;4.53;;
54849;SDS011;47660;51.334;12.396;2023-03-02T02:52:21;9.93;;;3.88;;
54849;SDS011;47660;51.334;12.396;2023-03-02T02:54:50;10.45;;;5.60;;
54849;SDS011;47660;51.334;12.396;2023-03-02T02:57:19;13.35;;;5.60;;
54849;SDS011;47660;51.334;12.396;2023-03-02T02:59:52;8.05;;;3.63;;
54849;SDS011;47660;51.334;12.396;2023-03-02T03:02:24;10.90;;;4.70;;
54849;SDS011;47660;51.334;12.396;2023-03-02T03:04:51;12.48;;;5.22;;
54849;SDS011;47660;51.334;12.396;2023-03-02T03:07:31;9.23;;;5.57;;
54849;SDS011;47660;51.334;12.396;2023-03-02T03:10:04;10.98;;;5.70;;
54849;SDS011;47660;51.334;12.396;2023-03-02T03:12:40;9.25;;;4.97;;
54849;SDS011;47660;51.334;12.396;2023-03-02T03:15:09;9.48;;;4.35;;
54849;SDS011;47660;51.334;12.396;2023-03-02T03:17:35;6.55;;;4.45;;
54849;SDS011;47660;51.334;12.396;2023-03-02T03:20:00;8.48;;;4.65;;
54849;SDS011;47660;51.334;12.396;2023-03-02T03:22:34;12.43;;;5.55;;
54849;SDS011;47660;51.334;12.396;2023-03-02T03:25:02;13.43;;;6.03;;
54849;SDS011;47660;51.334;12.396;2023-03-02T03:27:28;12.77;;;5.88;;
54849;SDS011;47660;51.334;12.396;2023-03-02T03:29:54;8.02;;;4.68;;
54849;SDS011;47660;51.334;12.396;2023-03-02T03:34:45;9.50;;;5.20;;
54849;SDS011;47660;51.334;12.396;2023-03-02T03:37:12;15.35;;;4.97;;
54849;SDS011;47660;51.334;12.396;2023-03-02T03:39:43;11.18;;;4.95;;
54849;SDS011;47660;51.334;12.396;2023-03-02T03:42:13;8.00;;;5.22;;
54849;SDS011;47660;51.334;12.396;2023-03-02T03:44:39;19.30;;;6.07;;
54849;SDS011;47660;51.334;12.396;2023-03-02T03:47:05;7.72;;;4.60;;
54849;SDS011;47660;51.334;12.396;2023-03-02T03:49:30;11.13;;;5.25;;
54849;SDS011;47660;51.334;12.396;2023-03-02T03:51:55;6.55;;;4.53;;
54849;SDS011;47660;51.334;12.396;2023-03-02T03:54:21;11.18;;;5.18;;
54849;SDS011;47660;51.334;12.396;2023-03-02T03:56:47;17.75;;;7.13;;
54849;SDS011;47660;51.334;12.396;2023-03-02T03:59:18;9.35;;;4.13;;
54849;SDS011;47660;51.334;12.396;2023-03-02T04:01:51;11.05;;;4.47;;
54849;SDS011;47660;51.334;12.396;2023-03-02T04:04:20;13.40;;;5.50;;
54849;SDS011;47660;51.334;12.396;2023-03-02T04:06:48;10.95;;;5.15;;
54849;SDS011;47660;51.334;12.396;2023-03-02T04:09:14;11.82;;;4.82;;
54849;SDS011;47660;51.334;12.396;2023-03-02T04:11:42;6.95;;;4.40;;
54849;SDS011;47660;51.334;12.396;2023-03-02T04:14:09;9.82;;;4.40;;
54849;SDS011;47660;51.334;12.396;2023-03-02T04:16:35;13.30;;;5.03;;
54849;SDS011;47660;51.334;12.396;2023-03-02T04:19:01;14.75;;;4.65;;
54849;SDS011;47660;51.334;12.396;2023-03-02T04:21:33;11.43;;;4.88;;
54849;SDS011;47660;51.334;12.396;2023-03-02T04:24:03;8.75;;;4.75;;
54849;SDS011;47660;51.334;12.396;2023-03-02T04:26:29;9.00;;;5.05;;
54849;SDS011;47660;51.334;12.396;2023-03-02T04:28:56;9.95;;;4.25;;
54849;SDS011;47660;51.334;12.396;2023-03-02T04:31:22;12.88;;;6.32;;
54849;SDS011;47660;51.334;12.396;2023-03-02T04:33:50;13.27;;;5.20;;
54849;SDS011;47660;51.334;12.396;2023-03-02T04:36:16;11.27;;;5.10;;
54849;SDS011;47660;51.334;12.396;2023-03-02T04:38:41;12.75;;;5.18;;
54849;SDS011;47660;51.334;12.396;2023-03-02T04:41:06;14.88;;;5.10;;
54849;SDS011;47660;51.334;12.396;2023-03-02T04:45:58;12.25;;;4.93;;
54849;SDS011;47660;51.334;12.396;2023-03-02T04:48:23;10.48;;;4.30;;
54849;SDS011;47660;51.334;12.396;2023-03-02T04:50:49;12.65;;;4.63;;
54849;SDS011;47660;51.334;12.396;2023-03-02T04:53:15;9.35;;;4.35;;
54849;SDS011;47660;51.334;12.396;2023-03-02T04:58:06;9.98;;;4.28;;
54849;SDS011;47660;51.334;12.396;2023-03-02T05:03:00;7.47;;;3.95;;
54849;SDS011;47660;51.334;12.396;2023-03-02T05:05:28;10.20;;;4.30;;
54849;SDS011;47660;51.334;12.396;2023-03-02T05:07:54;7.93;;;4.53;;
54849;SDS011;47660;51.334;12.396;2023-03-02T05:10:22;13.15;;;4.75;;
54849;SDS011;47660;51.334;12.396;2023-03-02T05:12:48;12.00;;;5.57;;
54849;SDS011;47660;51.334;12.396;2023-03-02T05:15:27;9.65;;;4.28;;
54849;SDS011;47660;51.334;12.396;2023-03-02T05:18:03;9.20;;;4.65;;
54849;SDS011;47660;51.334;12.396;2023-03-02T05:20:30;12.35;;;4.93;;
54849;SDS011;47660;51.334;12.396;2023-03-02T05:22:57;10.95;;;6.22;;
54849;SDS011;47660;51.334;12.396;2023-03-02T05:25:27;15.25;;;5.75;;
54849;SDS011;47660;51.334;12.396;2023-03-02T05:27:54;11.05;;;4.65;;
54849;SDS011;47660;51.334;12.396;2023-03-02T05:30:20;8.80;;;4.72;;
54849;SDS011;47660;51.334;12.396;2023-03-02T05:32:48;7.78;;;4.55;;
54849;SDS011;47660;51.334;12.396;2023-03-02T05:35:14;10.75;;;5.07;;
54849;SDS011;47660;51.334;12.396;2023-03-02T05:37:40;18.05;;;5.47;;
54849;SDS011;47660;51.334;12.396;2023-03-02T05:40:11;16.70;;;6.32;;
54849;SDS011;47660;51.334;12.396;2023-03-02T05:42:39;11.88;;;6.18;;
54849;SDS011;47660;51.334;12.396;2023-03-02T05:45:05;12.13;;;6.13;;
54849;SDS011;47660;51.334;12.396;2023-03-02T05:47:32;12.35;;;5.53;;
54849;SDS011;47660;51.334;12.396;2023-03-02T05:49:57;15.13;;;5.80;;
54849;SDS011;47660;51.334;12.396;2023-03-02T05:52:23;12.40;;;5.40;;
54849;SDS011;47660;51.334;12.396;2023-03-02T05:54:49;10.23;;;5.43;;
54849;SDS011;47660;51.334;12.396;2023-03-02T05:57:14;12.80;;;6.15;;
54849;SDS011;47660;51.334;12.396;2023-03-02T05:59:42;12.10;;;5.50;;
54849;SDS011;47660;51.334;12.396;2023-03-02T06:02:10;9.95;;;5.40;;
54849;SDS011;47660;51.334;12.396;2023-03-02T06:04:36;10.85;;;6.20;;
54849;SDS011;47660;51.334;12.396;2023-03-02T06:07:09;11.88;;;4.35;;
54849;SDS011;47660;51.334;12.396;2023-03-02T06:09:36;9.10;;;3.80;;
54849;SDS011;47660;51.334;12.396;2023-03-02T06:12:06;14.73;;;5.20;;
54849;SDS011;47660;51.334;12.396;2023-03-02T06:14:32;16.58;;;6.28;;
54849;SDS011;47660;51.334;12.396;2023-03-02T06:17:00;8.80;;;4.72;;
54849;SDS011;47660;51.334;12.396;2023-03-02T06:19:28;11.70;;;4.40;;
54849;SDS011;47660;51.334;12.396;2023-03-02T06:21:54;10.13;;;4.22;;
54849;SDS011;47660;51.334;12.396;2023-03-02T06:24:20;10.63;;;4.10;;
54849;SDS011;47660;51.334;12.396;2023-03-02T06:26:45;6.45;;;4.03;;
54849;SDS011;47660;51.334;12.396;2023-03-02T06:29:13;7.75;;;4.63;;
54849;SDS011;47660;51.334;12.396;2023-03-02T06:31:41;12.65;;;4.97;;
54849;SDS011;47660;51.334;12.396;2023-03-02T06:34:06;11.75;;;6.63;;
54849;SDS011;47660;51.334;12.396;2023-03-02T06:36:32;12.02;;;5.10;;
54849;SDS011;47660;51.334;12.396;2023-03-02T06:38:57;12.05;;;4.75;;
54849;SDS011;47660;51.334;12.396;2023-03-02T06:43:49;8.80;;;4.65;;
54849;SDS011;47660;51.334;12.396;2023-03-02T06:46:15;9.60;;;4.63;;
54849;SDS011;47660;51.334;12.396;2023-03-02T06:48:43;9.40;;;3.70;;
54849;SDS011;47660;51.334;12.396;2023-03-02T06:51:08;9.52;;;5.22;;
54849;SDS011;47660;51.334;12.396;2023-03-02T06:53:34;8.48;;;4.18;;
54849;SDS011;47660;51.334;12.396;2023-03-02T06:55:59;13.02;;;4.72;;
54849;SDS011;47660;51.334;12.396;2023-03-02T06:58:25;13.13;;;4.63;;
54849;SDS011;47660;51.334;12.396;2023-03-02T07:00:50;8.70;;;4.60;;
54849;SDS011;47660;51.334;12.396;2023-03-02T07:03:16;11.25;;;5.18;;
54849;SDS011;47660;51.334;12.396;2023-03-02T07:05:43;11.43;;;5.10;;
54849;SDS011;47660;51.334;12.396;2023-03-02T07:08:10;8.45;;;5.25;;
54849;SDS011;47660;51.334;12.396;2023-03-02T07:10:36;6.80;;;4.35;;
54849;SDS011;47660;51.334;12.396;2023-03-02T07:13:02;11.23;;;5.88;;
54849;SDS011;47660;51.334;12.396;2023-03-02T07:15:30;11.93;;;5.75;;
54849;SDS011;47660;51.334;12.396;2023-03-02T07:17:56;17.73;;;5.47;;
54849;SDS011;47660;51.334;12.396;2023-03-02T07:20:21;8.90;;;4.57;;
54849;SDS011;47660;51.334;12.396;2023-03-02T07:22:47;11.63;;;5.18;;
54849;SDS011;47660;51.334;12.396;2023-03-02T07:25:16;9.68;;;4.68;;
54849;SDS011;47660;51.334;12.396;2023-03-02T07:27:43;11.48;;;5.00;;
54849;SDS011;47660;51.334;12.396;2023-03-02T07:30:09;14.88;;;6.20;;
54849;SDS011;47660;51.334;12.396;2023-03-02T07:32:35;13.68;;;5.50;;
54849;SDS011;47660;51.334;12.396;2023-03-02T07:35:01;14.13;;;5.63;;
54849;SDS011;47660;51.334;12.396;2023-03-02T07:37:29;9.30;;;4.72;;
54849;SDS011;47660;51.334;12.396;2023-03-02T07:39:54;13.27;;;6.40;;
54849;SDS011;47660;51.334;12.396;2023-03-02T07:42:22;15.00;;;5.75;;
54849;SDS011;47660;51.334;12.396;2023-03-02T07:44:47;16.30;;;6.75;;
54849;SDS011;47660;51.334;12.396;2023-03-02T07:47:13;16.65;;;5.80;;
54849;SDS011;47660;51.334;12.396;2023-03-02T07:49:38;14.98;;;5.97;;
54849;SDS011;47660;51.334;12.396;2023-03-02T07:52:04;12.35;;;6.20;;
54849;SDS011;47660;51.334;12.396;2023-03-02T07:54:29;9.80;;;5.07;;
54849;SDS011;47660;51.334;12.396;2023-03-02T07:56:55;12.00;;;5.25;;
54849;SDS011;47660;51.334;12.396;2023-03-02T07:59:22;13.32;;;6.00;;
54849;SDS011;47660;51.334;12.396;2023-03-02T08:01:47;13.27;;;5.57;;
54849;SDS011;47660;51.334;12.396;2023-03-02T08:04:15;14.63;;;6.03;;
54849;SDS011;47660;51.334;12.396;2023-03-02T08:06:41;9.77;;;4.95;;
54849;SDS011;47660;51.334;12.396;2023-03-02T08:09:06;17.67;;;6.85;;
54849;SDS011;47660;51.334;12.396;2023-03-02T08:11:32;14.73;;;5.55;;
54849;SDS011;47660;51.334;12.396;2023-03-02T08:16:24;11.77;;;4.80;;
54849;SDS011;47660;51.334;12.396;2023-03-02T08:18:50;15.95;;;5.80;;
54849;SDS011;47660;51.334;12.396;2023-03-02T08:21:17;11.52;;;5.47;;
54849;SDS011;47660;51.334;12.396;2023-03-02T08:23:45;11.02;;;4.55;;
54849;SDS011;47660;51.334;12.396;2023-03-02T08:26:11;14.50;;;5.10;;
54849;SDS011;47660;51.334;12.396;2023-03-02T08:28:37;15.60;;;6.28;;
54849;SDS011;47660;51.334;12.396;2023-03-02T08:31:03;16.88;;;6.88;;
54849;SDS011;47660;51.334;12.396;2023-03-02T08:33:31;13.55;;;6.28;;
54849;SDS011;47660;51.334;12.396;2023-03-02T08:38:28;16.52;;;6.15;;
54849;SDS011;47660;51.334;12.396;2023-03-02T08:40:55;14.38;;;6.10;;
54849;SDS011;47660;51.334;12.396;2023-03-02T08:43:24;15.18;;;6.32;;
54849;SDS011;47660;51.334;12.396;2023-03-02T08:46:08;16.27;;;6.47;;
54849;SDS011;47660;51.334;12.396;2023-03-02T08:48:35;11.85;;;6.43;;
54849;SDS011;47660;51.334;12.396;2023-03-02T08:51:02;13.02;;;6.15;;
54849;SDS011;47660;51.334;12.396;2023-03-02T08:53:32;15.48;;;5.60;;
54849;SDS011;47660;51.334;12.396;2023-03-02T08:56:03;13.43;;;6.00;;
54849;SDS011;47660;51.334;12.396;2023-03-02T08:58:31;12.77;;;5.55;;
54849;SDS011;47660;51.334;12.396;2023-03-02T09:00:59;16.38;;;6.05;;
54849;SDS011;47660;51.334;12.396;2023-03-02T09:03:25;12.75;;;5.38;;
54849;SDS011;47660;51.334;12.396;2023-03-02T09:05:50;11.18;;;5.28;;
54849;SDS011;47660;51.334;12.396;2023-03-02T09:08:15;13.52;;;6.18;;
54849;SDS011;47660;51.334;12.396;2023-03-02T09:10:41;13.25;;;5.55;;
54849;SDS011;47660;51.334;12.396;2023-03-02T09:13:07;15.90;;;7.00;;
54849;SDS011;47660;51.334;12.396;2023-03-02T09:15:35;14.60;;;5.95;;
54849;SDS011;47660;51.334;12.396;2023-03-02T09:18:01;16.58;;;6.22;;
54849;SDS011;47660;51.334;12.396;2023-03-02T09:20:26;16.98;;;7.13;;
54849;SDS011;47660;51.334;12.396;2023-03-02T09:23:00;13.80;;;6.55;;
54849;SDS011;47660;51.334;12.396;2023-03-02T09:25:25;13.57;;;6.05;;
54849;SDS011;47660;51.334;12.396;2023-03-02T09:27:51;13.43;;;6.22;;
54849;SDS011;47660;51.334;12.396;2023-03-02T09:30:17;13.50;;;6.07;;
54849;SDS011;47660;51.334;12.396;2023-03-02T09:32:45;16.85;;;6.32;;
54849;SDS011;47660;51.334;12.396;2023-03-02T09:35:12;14.10;;;5.78;;
54849;SDS011;47660;51.334;12.396;2023-03-02T09:37:38;15.88;;;6.03;;
54849;SDS011;47660;51.334;12.396;2023-03-02T09:40:05;13.02;;;5.80;;
54849;SDS011;47660;51.334;12.396;2023-03-02T09:45:56;15.50;;;6.30;;
54849;SDS011;47660;51.334;12.396;2023-03-02T09:48:39;12.48;;;5.30;;
54849;SDS011;47660;51.334;12.396;2023-03-02T09:54:33;15.05;;;6.45;;
54849;SDS011;47660;51.334;12.396;2023-03-02T09:56:44;12.80;;;5.60;;
54849;SDS011;47660;51.334;12.396;2023-03-02T10:01:57;13.80;;;7.00;;
54849;SDS011;47660;51.334;12.396;2023-03-02T10:04:38;13.50;;;6.65;;
54849;SDS011;47660;51.334;12.396;2023-03-02T10:09:58;15.80;;;6.15;;
54849;SDS011;47660;51.334;12.396;2023-03-02T10:18:08;15.85;;;6.80;;
54849;SDS011;47660;51.334;12.396;2023-03-02T10:23:38;19.55;;;6.40;;
54849;SDS011;47660;51.334;12.396;2023-03-02T10:32:00;16.83;;;6.32;;
54849;SDS011;47660;51.334;12.396;2023-03-02T10:34:29;12.30;;;5.97;;
54849;SDS011;47660;51.334;12.396;2023-03-02T10:36:55;14.18;;;6.50;;
54849;SDS011;47660;51.334;12.396;2023-03-02T10:39:22;17.90;;;6.35;;
54849;SDS011;47660;51.334;12.396;2023-03-02T10:42:03;13.95;;;6.25;;
54849;SDS011;47660;51.334;12.396;2023-03-02T10:44:35;14.35;;;6.78;;
54849;SDS011;47660;51.334;12.396;2023-03-02T10:47:04;13.05;;;5.82;;
54849;SDS011;47660;51.334;12.396;2023-03-02T10:49:35;18.13;;;6.93;;
54849;SDS011;47660;51.334;12.396;2023-03-02T10:52:08;16.05;;;6.65;;
54849;SDS011;47660;51.334;12.396;2023-03-02T10:54:37;15.77;;;6.65;;
54849;SDS011;47660;51.334;12.396;2023-03-02T10:57:04;14.35;;;6.72;;
54849;SDS011;47660;51.334;12.396;2023-03-02T10:59:56;15.57;;;6.43;;
54849;SDS011;47660;51.334;12.396;2023-03-02T11:02:24;16.08;;;6.55;;
54849;SDS011;47660;51.334;12.396;2023-03-02T11:04:55;14.35;;;6.85;;
54849;SDS011;47660;51.334;12.396;2023-03-02T11:07:26;15.90;;;6.18;;
54849;SDS011;47660;51.334;12.396;2023-03-02T11:12:25;16.10;;;6.70;;
54849;SDS011;47660;51.334;12.396;2023-03-02T11:21:05;14.13;;;6.32;;
54849;SDS011;47660;51.334;12.396;2023-03-02T11:23:35;16.05;;;6.45;;
54849;SDS011;47660;51.334;12.396;2023-03-02T11:29:14;17.65;;;7.65;;
54849;SDS011;47660;51.334;12.396;2023-03-02T11:31:51;22.38;;;5.88;;
54849;SDS011;47660;51.334;12.396;2023-03-02T11:36:57;15.07;;;6.22;;
54849;SDS011;47660;51.334;12.396;2023-03-02T11:42:17;12.85;;;6.05;;
54849;SDS011;47660;51.334;12.396;2023-03-02T11:44:46;14.75;;;6.43;;
54849;SDS011;47660;51.334;12.396;2023-03-02T11:47:13;15.25;;;5.53;;
54849;SDS011;47660;51.334;12.396;2023-03-02T11:49:41;20.83;;;5.80;;
54849;SDS011;47660;51.334;12.396;2023-03-02T11:52:18;11.05;;;5.57;;
54849;SDS011;47660;51.334;12.396;2023-03-02T11:54:48;11.30;;;5.28;;
54849;SDS011;47660;51.334;12.396;2023-03-02T12:00:03;9.32;;;4.82;;
54849;SDS011;47660;51.334;12.396;2023-03-02T12:02:38;11.60;;;5.40;;
54849;SDS011;47660;51.334;12.396;2023-03-02T12:05:26;18.85;;;5.68;;
54849;SDS011;47660;51.334;12.396;2023-03-02T12:07:57;10.95;;;4.78;;
54849;SDS011;47660;51.334;12.396;2023-03-02T12:10:38;15.07;;;5.60;;
54849;SDS011;47660;51.334;12.396;2023-03-02T12:13:11;11.90;;;4.73;;
54849;SDS011;47660;51.334;12.396;2023-03-02T12:15:42;14.13;;;4.88;;
54849;SDS011;47660;51.334;12.396;2023-03-02T12:23:27;12.20;;;5.70;;
54849;SDS011;47660;51.334;12.396;2023-03-02T12:28:33;11.80;;;5.90;;
54849;SDS011;47660;51.334;12.396;2023-03-02T12:31:07;11.73;;;5.43;;
54849;SDS011;47660;51.334;12.396;2023-03-02T12:33:45;10.52;;;4.70;;
54849;SDS011;47660;51.334;12.396;2023-03-02T12:36:14;9.93;;;5.00;;
54849;SDS011;47660;51.334;12.396;2023-03-02T12:38:49;10.05;;;4.38;;
54849;SDS011;47660;51.334;12.396;2023-03-02T12:46:38;16.10;;;7.40;;
54849;SDS011;47660;51.334;12.396;2023-03-02T12:57:26;12.10;;;5.13;;
54849;SDS011;47660;51.334;12.396;2023-03-02T12:59:58;12.60;;;5.57;;
54849;SDS011;47660;51.334;12.396;2023-03-02T13:02:26;13.18;;;5.68;;
54849;SDS011;47660;51.334;12.396;2023-03-02T13:05:03;12.73;;;4.85;;
54849;SDS011;47660;51.334;12.396;2023-03-02T13:07:39;10.75;;;4.28;;
54849;SDS011;47660;51.334;12.396;2023-03-02T13:10:19;9.48;;;4.43;;
54849;SDS011;47660;51.334;12.396;2023-03-02T13:12:48;10.50;;;5.10;;
54849;SDS011;47660;51.334;12.396;2023-03-02T13:15:14;9.05;;;4.43;;
54849;SDS011;47660;51.334;12.396;2023-03-02T13:17:41;9.00;;;4.65;;
54849;SDS011;47660;51.334;12.396;2023-03-02T13:20:09;11.95;;;4.63;;
54849;SDS011;47660;51.334;12.396;2023-03-02T13:22:39;9.55;;;4.00;;
54849;SDS011;47660;51.334;12.396;2023-03-02T13:25:06;10.27;;;4.10;;
54849;SDS011;47660;51.334;12.396;2023-03-02T13:27:54;7.38;;;4.18;;
54849;SDS011;47660;51.334;12.396;2023-03-02T13:32:50;11.63;;;4.65;;
54849;SDS011;47660;51.334;12.396;2023-03-02T13:35:20;10.25;;;4.43;;
54849;SDS011;47660;51.334;12.396;2023-03-02T13:37:54;13.60;;;5.35;;
54849;SDS011;47660;51.334;12.396;2023-03-02T13:40:32;10.30;;;5.05;;
54849;SDS011;47660;51.334;12.396;2023-03-02T13:43:03;10.27;;;3.95;;
54849;SDS011;47660;51.334;12.396;2023-03-02T13:45:32;12.73;;;4.63;;
54849;SDS011;47660;51.334;12.396;2023-03-02T13:47:59;7.88;;;4.38;;
54849;SDS011;47660;51.334;12.396;2023-03-02T13:50:40;7.90;;;4.13;;
54849;SDS011;47660;51.334;12.396;2023-03-02T13:53:18;10.48;;;4.70;;
54849;SDS011;47660;51.334;12.396;2023-03-02T13:55:44;7.85;;;3.88;;
54849;SDS011;47660;51.334;12.396;2023-03-02T13:58:12;7.35;;;4.57;;
54849;SDS011;47660;51.334;12.396;2023-03-02T14:00:40;8.88;;;4.55;;
54849;SDS011;47660;51.334;12.396;2023-03-02T14:03:27;10.40;;;3.90;;
54849;SDS011;47660;51.334;12.396;2023-03-02T14:05:53;9.80;;;4.47;;
54849;SDS011;47660;51.334;12.396;2023-03-02T14:08:20;10.98;;;4.38;;
54849;SDS011;47660;51.334;12.396;2023-03-02T14:10:54;12.20;;;4.95;;
54849;SDS011;47660;51.334;12.396;2023-03-02T14:13:23;11.80;;;4.72;;
54849;SDS011;47660;51.334;12.396;2023-03-02T14:15:53;9.05;;;4.47;;
54849;SDS011;47660;51.334;12.396;2023-03-02T14:20:56;7.38;;;3.83;;
54849;SDS011;47660;51.334;12.396;2023-03-02T14:23:23;8.90;;;4.28;;
54849;SDS011;47660;51.334;12.396;2023-03-02T14:25:52;11.27;;;4.80;;
54849;SDS011;47660;51.334;12.396;2023-03-02T14:28:31;9.25;;;4.43;;
54849;SDS011;47660;51.334;12.396;2023-03-02T14:31:01;13.55;;;5.15;;
54849;SDS011;47660;51.334;12.396;2023-03-02T14:33:28;10.43;;;4.70;;
54849;SDS011;47660;51.334;12.396;2023-03-02T14:35:55;8.68;;;4.15;;
54849;SDS011;47660;51.334;12.396;2023-03-02T14:38:24;9.00;;;4.38;;
54849;SDS011;47660;51.334;12.396;2023-03-02T14:40:51;6.03;;;3.80;;
54849;SDS011;47660;51.334;12.396;2023-03-02T14:43:16;10.95;;;5.63;;
54849;SDS011;47660;51.334;12.396;2023-03-02T14:45:43;8.35;;;4.50;;
54849;SDS011;47660;51.334;12.396;2023-03-02T14:48:11;10.50;;;4.97;;
54849;SDS011;47660;51.334;12.396;2023-03-02T14:50:37;8.30;;;4.70;;
54849;SDS011;47660;51.334;12.396;2023-03-02T14:53:08;9.55;;;5.07;;
54849;SDS011;47660;51.334;12.396;2023-03-02T14:55:36;9.05;;;5.20;;
54849;SDS011;47660;51.334;12.396;2023-03-02T15:00:44;11.45;;;5.20;;
54849;SDS011;47660;51.334;12.396;2023-03-02T15:03:12;8.40;;;5.28;;
54849;SDS011;47660;51.334;12.396;2023-03-02T15:05:38;8.70;;;4.85;;
54849;SDS011;47660;51.334;12.396;2023-03-02T15:08:04;8.90;;;5.38;;
54849;SDS011;47660;51.334;12.396;2023-03-02T15:10:30;9.38;;;4.78;;
54849;SDS011;47660;51.334;12.396;2023-03-02T15:12:55;8.10;;;4.63;;
54849;SDS011;47660;51.334;12.396;2023-03-02T15:15:21;8.00;;;4.57;;
54849;SDS011;47660;51.334;12.396;2023-03-02T15:17:46;8.57;;;4.78;;
54849;SDS011;47660;51.334;12.396;2023-03-02T15:20:13;7.53;;;4.65;;
54849;SDS011;47660;51.334;12.396;2023-03-02T15:22:40;10.10;;;5.68;;
54849;SDS011;47660;51.334;12.396;2023-03-02T15:25:05;9.20;;;4.80;;
54849;SDS011;47660;51.334;12.396;2023-03-02T15:27:31;10.35;;;5.00;;
54849;SDS011;47660;51.334;12.396;2023-03-02T15:29:56;10.57;;;5.13;;
54849;SDS011;47660;51.334;12.396;2023-03-02T15:32:21;8.85;;;4.70;;
54849;SDS011;47660;51.334;12.396;2023-03-02T15:34:50;7.75;;;4.68;;
54849;SDS011;47660;51.334;12.396;2023-03-02T15:37:15;9.65;;;4.50;;
54849;SDS011;47660;51.334;12.396;2023-03-02T15:39:41;11.55;;;5.22;;
54849;SDS011;47660;51.334;12.396;2023-03-02T15:42:08;11.32;;;4.63;;
54849;SDS011;47660;51.334;12.396;2023-03-02T15:44:33;11.30;;;5.00;;
54849;SDS011;47660;51.334;12.396;2023-03-02T15:46:59;11.95;;;5.22;;
54849;SDS011;47660;51.334;12.396;2023-03-02T15:49:25;10.52;;;4.97;;
54849;SDS011;47660;51.334;12.396;2023-03-02T15:51:56;11.20;;;5.15;;
54849;SDS011;47660;51.334;12.396;2023-03-02T15:54:23;9.85;;;5.55;;
54849;SDS011;47660;51.334;12.396;2023-03-02T15:56:51;11.60;;;5.75;;
54849;SDS011;47660;51.334;12.396;2023-03-02T15:59:17;7.82;;;4.25;;
54849;SDS011;47660;51.334;12.396;2023-03-02T16:01:55;11.75;;;5.10;;
54849;SDS011;47660;51.334;12.396;2023-03-02T16:04:23;9.23;;;4.35;;
54849;SDS011;47660;51.334;12.396;2023-03-02T16:06:50;8.77;;;4.25;;
54849;SDS011;47660;51.334;12.396;2023-03-02T16:09:16;9.35;;;4.57;;
54849;SDS011;47660;51.334;12.396;2023-03-02T16:11:42;7.97;;;4.47;;